createdAt,value
2022-08-19T00:01:28.896Z,100862.22
2022-08-19T00:03:59.058Z,100860.19
2022-08-19T00:06:27.357Z,100859.19
2022-08-19T00:08:56.361Z,100849.16
2022-08-19T00:11:26.382Z,100840.94
2022-08-19T00:13:56.365Z,100837.25
2022-08-19T00:16:26.530Z,100844.59
2022-08-19T00:18:56.367Z,100827.81
2022-08-19T00:21:25.392Z,100834.09
2022-08-19T00:23:53.536Z,100825.44
2022-08-19T00:26:22.225Z,100834.72
2022-08-19T00:28:51.585Z,100831.66
2022-08-19T00:31:19.690Z,100836.97
2022-08-19T00:33:48.840Z,100828.09
2022-08-19T00:36:17.003Z,100823.44
2022-08-19T00:38:45.194Z,100822.25
2022-08-19T00:41:17.121Z,100817.66
2022-08-19T00:43:45.663Z,100817.22
2022-08-19T00:46:15.071Z,100826.28
2022-08-19T00:48:43.186Z,100825.03
2022-08-19T00:51:11.553Z,100827.03
2022-08-19T00:53:40.593Z,100825.53
2022-08-19T00:56:09.739Z,100812.66
2022-08-19T00:58:38.204Z,100795.22
2022-08-19T01:01:08.614Z,100810.38
2022-08-19T01:03:56.966Z,100812.09
2022-08-19T01:06:27.050Z,100807.19
2022-08-19T01:08:56.401Z,100801.16
2022-08-19T01:11:24.452Z,100805.31
2022-08-19T01:13:55.212Z,100811.69
2022-08-19T01:16:26.277Z,100811.59
2022-08-19T01:18:55.705Z,100803.66
2022-08-19T01:21:32.368Z,100803.84
2022-08-19T01:24:01.818Z,100800.34
2022-08-19T01:26:31.201Z,100789.97
2022-08-19T01:29:01.990Z,100794.31
2022-08-19T01:31:33.117Z,100792.03
2022-08-19T01:34:03.574Z,100793.13
2022-08-19T01:36:35.544Z,100792.56
2022-08-19T01:39:08.058Z,100792.25
2022-08-19T01:41:36.452Z,100784.03
2022-08-19T01:44:17.635Z,100788.91
2022-08-19T01:46:49.169Z,100787.25
2022-08-19T01:49:20.359Z,100787.91
2022-08-19T01:51:48.900Z,100786.28
2022-08-19T01:54:23.229Z,100782.91
2022-08-19T01:57:00.069Z,100785.16
2022-08-19T01:59:28.432Z,100787.28
2022-08-19T02:01:56.443Z,100787.28
2022-08-19T02:04:26.396Z,100784.88
2022-08-19T02:06:54.544Z,100771.41
2022-08-19T02:09:24.087Z,100770.72
2022-08-19T02:11:52.207Z,100774.28
2022-08-19T02:14:20.245Z,100767.81
2022-08-19T02:16:48.401Z,100775.34
2022-08-19T02:19:16.446Z,100772.66
2022-08-19T02:21:45.001Z,100775.34
2022-08-19T02:24:13.204Z,100775.44
2022-08-19T02:26:42.617Z,100763.09
2022-08-19T02:29:10.649Z,100763.59
2022-08-19T02:31:38.733Z,100765.13
2022-08-19T02:34:06.756Z,100759.72
2022-08-19T02:36:34.758Z,100769.00
2022-08-19T02:39:01.804Z,100758.38
2022-08-19T02:41:32.365Z,100752.78
2022-08-19T02:44:29.535Z,100755.66
2022-08-19T02:46:53.106Z,100753.94
2022-08-19T02:49:21.661Z,100722.31
2022-08-19T02:51:49.895Z,100723.19
2022-08-19T02:54:17.966Z,100758.19
2022-08-19T02:56:47.314Z,100760.59
2022-08-19T02:59:16.718Z,100761.47
2022-08-19T03:01:44.816Z,100770.72
2022-08-19T03:04:15.162Z,100765.13
2022-08-19T03:06:46.535Z,100764.94
2022-08-19T03:09:15.075Z,100770.50
2022-08-19T03:11:43.241Z,100766.84
2022-08-19T03:14:12.256Z,100761.56
2022-08-19T03:16:46.267Z,100766.47
2022-08-19T03:19:15.347Z,100769.84
2022-08-19T03:21:46.645Z,100768.13
2022-08-19T03:24:16.384Z,100768.13
2022-08-19T03:26:46.915Z,100764.34
2022-08-19T03:29:15.301Z,100764.94
2022-08-19T03:31:55.720Z,100768.59
2022-08-19T03:34:27.303Z,100761.56
2022-08-19T03:36:56.052Z,100767.47
2022-08-19T03:39:25.389Z,100766.47
2022-08-19T03:42:32.707Z,100780.84
2022-08-19T03:44:46.657Z,100753.06
2022-08-19T03:47:17.795Z,100784.41
2022-08-19T03:49:46.607Z,100787.81
2022-08-19T03:52:15.120Z,100798.63
2022-08-19T03:54:43.297Z,100801.22
2022-08-19T03:57:12.103Z,100800.06
2022-08-19T03:59:41.338Z,100810.75
2022-08-19T04:02:12.291Z,100802.06
2022-08-19T04:04:43.962Z,100795.22
2022-08-19T04:07:13.881Z,100776.72
2022-08-19T04:09:41.991Z,100807.06
2022-08-19T04:12:10.896Z,100809.88
2022-08-19T04:14:38.960Z,100814.13
2022-08-19T04:17:07.014Z,100772.66
2022-08-19T04:19:36.700Z,100820.03
2022-08-19T04:22:07.814Z,100823.97
2022-08-19T04:24:37.034Z,100823.28
2022-08-19T04:27:07.123Z,100825.72
2022-08-19T04:29:36.186Z,100838.34
2022-08-19T04:32:08.769Z,100813.06
2022-08-19T04:35:02.802Z,100829.56
2022-08-19T04:37:35.504Z,100835.25
2022-08-19T04:40:24.375Z,100835.09
2022-08-19T04:42:52.614Z,100833.88
2022-08-19T04:45:23.039Z,100836.31
2022-08-19T04:47:58.652Z,100839.13
2022-08-19T04:50:42.585Z,100833.81
2022-08-19T04:53:12.754Z,100838.44
2022-08-19T04:55:42.522Z,100844.63
2022-08-19T04:58:11.009Z,100847.03
2022-08-19T05:00:40.808Z,100846.72
2022-08-19T05:03:09.874Z,100848.75
2022-08-19T05:05:45.157Z,100847.03
2022-08-19T05:08:19.476Z,100843.75
2022-08-19T05:11:00.071Z,100842.09
2022-08-19T05:13:28.897Z,100851.28
2022-08-19T05:15:58.160Z,100856.78
2022-08-19T05:18:45.210Z,100847.78
2022-08-19T05:21:32.948Z,100842.03
2022-08-19T05:24:03.045Z,100855.44
2022-08-19T05:26:31.053Z,100862.75
2022-08-19T05:28:59.096Z,100854.09
2022-08-19T05:31:28.618Z,100870.09
2022-08-19T05:33:56.885Z,100863.72
2022-08-19T05:36:24.920Z,100872.81
2022-08-19T05:38:54.160Z,100870.09
2022-08-19T05:41:31.441Z,100862.75
2022-08-19T05:44:00.666Z,100864.50
2022-08-19T05:46:28.827Z,100863.91
2022-08-19T05:48:57.407Z,100867.41
2022-08-19T05:51:29.261Z,100854.75
2022-08-19T05:53:57.609Z,100847.50
2022-08-19T05:56:27.031Z,100851.19
2022-08-19T05:58:55.146Z,100853.19
2022-08-19T06:01:23.241Z,100847.22
2022-08-19T06:03:51.792Z,100852.03
2022-08-19T06:06:20.534Z,100855.69
2022-08-19T06:08:51.098Z,100851.94
2022-08-19T06:11:22.741Z,100853.00
2022-08-19T06:13:57.191Z,100860.53
2022-08-19T06:16:28.824Z,100854.25
2022-08-19T06:18:58.835Z,100848.47
2022-08-19T06:21:29.608Z,100849.63
2022-08-19T06:23:59.011Z,100852.72
2022-08-19T06:26:28.282Z,100850.97
2022-08-19T06:28:57.920Z,100845.28
2022-08-19T06:31:29.099Z,100855.59
2022-08-19T06:33:57.142Z,100860.25
2022-08-19T06:36:32.544Z,100857.44
2022-08-19T06:39:00.942Z,100850.88
2022-08-19T06:41:30.097Z,100855.03
2022-08-19T06:43:59.831Z,100851.94
2022-08-19T06:46:28.723Z,100823.03
2022-08-19T06:48:56.957Z,100858.22
2022-08-19T06:51:26.247Z,100849.03
2022-08-19T06:54:00.318Z,100845.59
2022-08-19T06:56:34.653Z,100839.69
2022-08-19T06:59:05.743Z,100846.84
2022-08-19T07:01:38.439Z,100848.47
2022-08-19T07:04:09.410Z,100858.13
2022-08-19T07:06:43.515Z,100860.25
2022-08-19T07:09:14.842Z,100862.00
2022-08-19T07:11:48.319Z,100871.25
2022-08-19T07:14:20.558Z,100874.53
2022-08-19T07:16:50.441Z,100847.50
2022-08-19T07:19:19.857Z,100861.31
2022-08-19T07:21:48.522Z,100863.06
2022-08-19T07:24:17.204Z,100836.69
2022-08-19T07:26:45.635Z,100868.34
2022-08-19T07:29:14.455Z,100871.06
2022-08-19T07:31:43.869Z,100862.66
2022-08-19T07:34:14.327Z,100875.13
2022-08-19T07:36:44.241Z,100882.16
2022-08-19T07:39:15.353Z,100877.53
2022-08-19T07:41:43.452Z,100883.63
2022-08-19T07:44:13.061Z,100881.47
2022-08-19T07:46:48.165Z,100886.69
2022-08-19T07:49:20.102Z,100886.56
2022-08-19T07:51:49.838Z,100887.28
2022-08-19T07:54:19.047Z,100888.13
2022-08-19T07:56:47.520Z,100886.88
2022-08-19T07:59:15.781Z,100889.78
2022-08-19T08:01:46.229Z,100895.06
2022-08-19T08:04:32.073Z,100906.00
2022-08-19T08:07:17.508Z,100913.81
2022-08-19T08:09:49.679Z,100914.44
2022-08-19T08:12:34.215Z,100914.50
2022-08-19T08:15:08.892Z,100918.34
2022-08-19T08:17:49.837Z,100921.47
2022-08-19T08:20:21.632Z,100924.81
2022-08-19T08:23:07.449Z,100923.25
2022-08-19T08:25:37.391Z,100921.25
2022-08-19T08:28:08.421Z,100930.31
2022-08-19T08:30:42.461Z,100921.47
2022-08-19T08:35:47.994Z,100927.84
2022-08-19T08:38:16.253Z,100931.41
2022-08-19T08:40:49.541Z,100923.97
2022-08-19T08:43:26.560Z,100930.91
2022-08-19T08:46:03.366Z,100932.16
2022-08-19T08:48:40.230Z,100937.25
2022-08-19T08:51:13.412Z,100934.56
2022-08-19T08:53:44.203Z,100935.69
2022-08-19T08:56:13.941Z,100927.38
2022-08-19T08:58:56.529Z,100927.00
2022-08-19T09:01:24.942Z,100929.03
2022-08-19T09:04:02.771Z,100932.69
2022-08-19T09:06:40.652Z,100930.97
2022-08-19T09:09:16.563Z,100931.78
2022-08-19T09:11:58.141Z,100934.00
2022-08-19T09:14:54.329Z,100933.47
2022-08-19T09:17:29.050Z,100930.34
2022-08-19T09:20:05.768Z,100933.53
2022-08-19T09:22:38.763Z,100929.81
2022-08-19T09:25:08.465Z,100934.06
2022-08-19T09:27:42.708Z,100938.53
2022-08-19T09:30:17.460Z,100938.09
2022-08-19T09:32:46.215Z,100943.78
2022-08-19T09:35:16.775Z,100942.09
2022-08-19T09:37:45.277Z,100948.53
2022-08-19T09:40:15.367Z,100941.81
2022-08-19T09:42:49.673Z,100938.97
2022-08-19T09:45:22.642Z,100928.56
2022-08-19T09:47:51.975Z,100931.78
2022-08-19T09:50:25.213Z,100936.19
2022-08-19T09:52:57.992Z,100930.41
2022-08-19T09:55:32.088Z,100932.25
2022-08-19T09:58:02.561Z,100923.28
2022-08-19T10:00:31.887Z,100935.00
2022-08-19T10:03:00.082Z,100932.66
2022-08-19T10:05:48.650Z,100926.69
2022-08-19T10:08:18.753Z,100931.38
2022-08-19T10:10:49.696Z,100925.75
2022-08-19T10:13:22.867Z,100925.63
2022-08-19T10:15:52.106Z,100921.41
2022-08-19T10:18:22.180Z,100920.75
2022-08-19T10:20:53.450Z,100930.06
2022-08-19T10:23:22.637Z,100928.53
2022-08-19T10:25:54.518Z,100935.50
2022-08-19T10:28:23.950Z,100942.31
2022-08-19T10:30:51.962Z,100941.44
2022-08-19T10:33:38.697Z,100934.41
2022-08-19T10:36:12.442Z,100934.84
2022-08-19T10:38:52.291Z,100932.47
2022-08-19T10:41:25.632Z,100930.72
2022-08-19T10:43:55.529Z,100933.00
2022-08-19T10:46:25.968Z,100925.50
2022-08-19T10:48:54.734Z,100928.34
2022-08-19T10:51:47.932Z,100928.09
2022-08-19T10:54:17.337Z,100927.56
2022-08-19T10:56:58.324Z,100929.16
2022-08-19T10:59:33.818Z,100928.09
2022-08-19T11:02:07.712Z,100924.84
2022-08-19T11:04:35.944Z,100919.84
2022-08-19T11:07:05.991Z,100924.75
2022-08-19T11:09:40.275Z,100912.41
2022-08-19T11:12:09.444Z,100924.53
2022-08-19T11:14:38.245Z,100922.03
2022-08-19T11:17:07.541Z,100912.94
2022-08-19T11:19:36.405Z,100915.66
2022-08-19T11:22:06.025Z,100913.81
2022-08-19T11:24:37.996Z,100914.44
2022-08-19T11:27:10.037Z,100917.59
2022-08-19T11:29:40.445Z,100914.34
2022-08-19T11:32:11.721Z,100920.78
2022-08-19T11:34:40.089Z,100923.97
2022-08-19T11:37:10.112Z,100921.91
2022-08-19T11:39:39.357Z,100925.78
2022-08-19T11:42:23.425Z,100921.03
2022-08-19T11:44:51.608Z,100918.19
2022-08-19T11:47:20.084Z,100928.53
2022-08-19T11:49:48.157Z,100917.75
2022-08-19T11:52:17.608Z,100909.72
2022-08-19T11:54:45.637Z,100913.25
2022-08-19T11:57:15.768Z,100905.97
2022-08-19T11:59:43.795Z,100909.44
2022-08-19T12:02:12.362Z,100907.63
2022-08-19T12:04:40.390Z,100913.09
2022-08-19T12:07:08.548Z,100915.19
2022-08-19T12:09:38.620Z,100914.09
2022-08-19T12:12:11.390Z,100912.94
2022-08-19T12:14:40.084Z,100916.66
2022-08-19T12:17:08.489Z,100926.84
2022-08-19T12:19:40.567Z,100917.47
2022-08-19T12:22:08.678Z,100920.38
2022-08-19T12:24:38.080Z,100926.31
2022-08-19T12:27:06.193Z,100930.22
2022-08-19T12:29:40.890Z,100921.44
2022-08-19T12:32:12.099Z,100924.84
2022-08-19T12:34:40.964Z,100919.09
2022-08-19T12:37:09.128Z,100916.63
2022-08-19T12:39:42.102Z,100903.56
2022-08-19T12:42:10.644Z,100911.94
2022-08-19T12:44:41.636Z,100907.97
2022-08-19T12:47:13.096Z,100909.38
2022-08-19T12:49:54.387Z,100885.88
2022-08-19T12:52:25.466Z,100900.19
2022-08-19T12:54:56.571Z,100890.72
2022-08-19T12:57:32.197Z,100890.47
2022-08-19T13:00:03.009Z,100896.09
2022-08-19T13:02:38.855Z,100891.97
2022-08-19T13:05:11.120Z,100893.72
2022-08-19T13:07:40.493Z,100896.63
2022-08-19T13:10:13.336Z,100898.75
2022-08-19T13:12:42.867Z,100895.13
2022-08-19T13:15:11.798Z,100906.66
2022-08-19T13:17:40.878Z,100900.81
2022-08-19T13:20:10.898Z,100890.19
2022-08-19T13:22:39.720Z,100905.28
2022-08-19T13:25:10.710Z,100888.97
2022-08-19T13:27:39.569Z,100896.34
2022-08-19T13:30:27.682Z,100894.03
2022-08-19T13:33:15.374Z,100886.97
2022-08-19T13:35:47.887Z,100889.69
2022-08-19T13:38:17.350Z,100886.97
2022-08-19T13:40:47.410Z,100884.88
2022-08-19T13:43:22.526Z,100889.19
2022-08-19T13:45:53.611Z,100892.03
2022-08-19T13:48:21.956Z,100882.03
2022-08-19T13:50:50.098Z,100878.44
2022-08-19T13:53:19.236Z,100874.44
2022-08-19T13:55:48.637Z,100863.19
2022-08-19T13:58:16.877Z,100872.00
2022-08-19T14:00:46.887Z,100865.69
2022-08-19T14:03:15.091Z,100873.50
2022-08-19T14:05:43.339Z,100869.03
2022-08-19T14:08:12.477Z,100874.09
2022-08-19T14:10:41.818Z,100879.19
2022-08-19T14:13:11.280Z,100874.38
2022-08-19T14:15:39.894Z,100875.97
2022-08-19T14:18:07.905Z,100878.47
2022-08-19T14:20:36.650Z,100875.22
2022-08-19T14:23:06.536Z,100876.91
2022-08-19T14:25:35.289Z,100875.56
2022-08-19T14:28:03.560Z,100883.47
2022-08-19T14:30:35.202Z,100877.31
2022-08-19T14:33:04.158Z,100870.13
2022-08-19T14:35:35.635Z,100872.25
2022-08-19T14:38:04.353Z,100868.81
2022-08-19T14:40:33.352Z,100868.91
2022-08-19T14:43:05.209Z,100869.28
2022-08-19T14:45:37.204Z,100868.91
2022-08-19T14:48:05.707Z,100868.56
2022-08-19T14:53:09.044Z,100865.72
2022-08-19T14:55:44.006Z,100870.38
2022-08-19T14:58:28.804Z,100865.78
2022-08-19T15:01:01.147Z,100867.41
2022-08-19T15:03:29.968Z,100872.84
2022-08-19T15:06:03.248Z,100876.78
2022-08-19T15:08:34.887Z,100867.78
2022-08-19T15:11:03.685Z,100881.88
2022-08-19T15:13:32.101Z,100879.91
2022-08-19T15:16:05.309Z,100881.41
2022-08-19T15:18:33.547Z,100884.81
2022-08-19T15:21:01.914Z,100891.22
2022-08-19T15:23:30.241Z,100892.66
2022-08-19T15:25:58.511Z,100881.38
2022-08-19T15:28:28.054Z,100882.31
2022-08-19T15:30:56.121Z,100893.84
2022-08-19T15:33:25.562Z,100887.69
2022-08-19T15:35:54.052Z,100892.13
2022-08-19T15:38:23.798Z,100902.66
2022-08-19T15:40:52.497Z,100893.22
2022-08-19T15:43:22.401Z,100892.59
2022-08-19T15:45:50.585Z,100898.44
2022-08-19T15:48:18.840Z,100897.66
2022-08-19T15:50:48.242Z,100894.41
2022-08-19T15:53:17.057Z,100894.28
2022-08-19T15:55:48.217Z,100902.81
2022-08-19T15:58:34.295Z,100909.50
2022-08-19T16:01:23.594Z,100910.16
2022-08-19T16:04:14.112Z,100905.25
2022-08-19T16:06:46.924Z,100903.25
2022-08-19T16:09:16.228Z,100900.31
2022-08-19T16:11:46.300Z,100906.88
2022-08-19T16:14:15.586Z,100919.84
2022-08-19T16:16:46.983Z,100920.22
2022-08-19T16:19:17.510Z,100905.59
2022-08-19T16:21:49.055Z,100901.63
2022-08-19T16:24:19.766Z,100906.44
2022-08-19T16:26:49.180Z,100913.50
2022-08-19T16:29:34.089Z,100908.72
2022-08-19T16:32:10.145Z,100904.38
2022-08-19T16:34:40.052Z,100904.28
2022-08-19T16:37:10.577Z,100890.69
2022-08-19T16:39:39.787Z,100898.34
2022-08-19T16:42:09.977Z,100890.53
2022-08-19T16:44:39.416Z,100891.88
2022-08-19T16:47:07.853Z,100887.97
2022-08-19T16:49:52.966Z,100888.06
2022-08-19T16:52:26.209Z,100889.03
2022-08-19T16:54:54.653Z,100891.00
2022-08-19T16:57:23.929Z,100891.88
2022-08-19T16:59:52.794Z,100888.56
2022-08-19T17:02:22.459Z,100891.03
2022-08-19T17:04:57.454Z,100891.13
2022-08-19T17:07:29.534Z,100875.78
2022-08-19T17:10:02.048Z,100884.06
2022-08-19T17:12:32.419Z,100891.13
2022-08-19T17:15:02.148Z,100895.63
2022-08-19T17:17:30.799Z,100894.91
2022-08-19T17:20:00.279Z,100897.09
2022-08-19T17:22:29.925Z,100899.47
2022-08-19T17:24:58.692Z,100894.97
2022-08-19T17:27:31.517Z,100899.50
2022-08-19T17:30:02.361Z,100899.50
2022-08-19T17:32:34.271Z,100896.75
2022-08-19T17:35:03.622Z,100898.63
2022-08-19T17:37:34.166Z,100897.06
2022-08-19T17:40:03.362Z,100900.81
2022-08-19T17:42:31.997Z,100900.56
2022-08-19T17:45:00.088Z,100901.19
2022-08-19T17:47:28.981Z,100890.69
2022-08-19T17:49:57.614Z,100906.88
2022-08-19T17:52:26.075Z,100904.03
2022-08-19T17:54:56.014Z,100907.81
2022-08-19T17:57:24.380Z,100899.16
2022-08-19T17:59:52.525Z,100901.34
2022-08-19T18:02:22.004Z,100901.72
2022-08-19T18:04:50.462Z,100894.50
2022-08-19T18:07:21.395Z,100889.44
2022-08-19T18:09:51.866Z,100890.91
2022-08-19T18:12:27.033Z,100890.97
2022-08-19T18:14:55.270Z,100898.41
2022-08-19T18:17:24.389Z,100895.16
2022-08-19T18:19:52.778Z,100897.38
2022-08-19T18:22:27.418Z,100888.81
2022-08-19T18:24:56.059Z,100887.53
2022-08-19T18:27:25.913Z,100883.41
2022-08-19T18:29:59.184Z,100883.03
2022-08-19T18:32:29.046Z,100881.41
2022-08-19T18:34:57.140Z,100880.25
2022-08-19T18:37:26.932Z,100881.81
2022-08-19T18:40:12.717Z,100889.41
2022-08-19T18:43:02.460Z,100896.03
2022-08-19T18:45:47.787Z,100889.78
2022-08-19T18:48:33.338Z,100890.88
2022-08-19T18:51:02.434Z,100877.31
2022-08-19T18:53:33.960Z,100877.13
2022-08-19T18:56:02.801Z,100875.72
2022-08-19T18:58:34.703Z,100882.38
2022-08-19T19:01:10.859Z,100888.09
2022-08-19T19:03:41.871Z,100899.38
2022-08-19T19:06:10.039Z,100883.53
2022-08-19T19:08:38.836Z,100878.34
2022-08-19T19:11:07.131Z,100884.06
2022-08-19T19:13:39.824Z,100888.00
2022-08-19T19:16:09.588Z,100885.81
2022-08-19T19:18:37.666Z,100880.63
2022-08-19T19:21:06.157Z,100880.97
2022-08-19T19:23:34.272Z,100890.94
2022-08-19T19:26:02.313Z,100892.25
2022-08-19T19:28:30.443Z,100894.28
2022-08-19T19:30:59.821Z,100893.75
2022-08-19T19:33:28.901Z,100894.72
2022-08-19T19:35:57.013Z,100895.34
2022-08-19T19:38:25.691Z,100899.25
2022-08-19T19:40:53.728Z,100904.88
2022-08-19T19:43:22.426Z,100908.69
2022-08-19T19:45:51.949Z,100903.38
2022-08-19T19:48:21.389Z,100916.44
2022-08-19T19:50:55.895Z,100916.00
2022-08-19T19:53:26.165Z,100916.38
2022-08-19T19:55:58.841Z,100906.72
2022-08-19T19:58:28.766Z,100907.47
2022-08-19T20:00:58.730Z,100908.75
2022-08-19T20:03:29.877Z,100909.25
2022-08-19T20:05:59.480Z,100902.81
2022-08-19T20:08:46.421Z,100910.75
2022-08-19T20:11:25.901Z,100913.22
2022-08-19T20:13:53.949Z,100915.84
2022-08-19T20:16:23.048Z,100919.72
2022-08-19T20:18:52.514Z,100923.69
2022-08-19T20:21:24.029Z,100929.59
2022-08-19T20:24:09.890Z,100928.66
2022-08-19T20:26:38.436Z,100945.69
2022-08-19T20:29:13.399Z,100946.63
2022-08-19T20:31:59.149Z,100953.25
2022-08-19T20:34:29.780Z,100966.88
2022-08-19T20:36:57.821Z,100972.66
2022-08-19T20:39:25.853Z,100976.50
2022-08-19T20:41:56.280Z,100975.03
2022-08-19T20:44:25.875Z,100985.16
2022-08-19T20:46:54.770Z,100981.56
2022-08-19T20:49:27.457Z,100986.22
2022-08-19T20:51:58.391Z,100982.81
2022-08-19T20:54:27.276Z,100981.53
2022-08-19T20:56:55.548Z,100983.03
2022-08-19T20:59:26.264Z,100975.13
2022-08-19T21:01:55.661Z,100968.50
2022-08-19T21:04:23.724Z,100978.34
2022-08-19T21:06:51.827Z,100968.31
2022-08-19T21:09:21.407Z,100974.22
2022-08-19T21:11:49.709Z,100972.09
2022-08-19T21:14:18.066Z,100962.66
2022-08-19T21:16:46.562Z,100957.97
2022-08-19T21:19:14.615Z,100950.72
2022-08-19T21:21:42.733Z,100960.28
2022-08-19T21:24:10.820Z,100964.41
2022-08-19T21:26:40.553Z,100972.94
2022-08-19T21:29:08.635Z,100963.28
2022-08-19T21:31:36.670Z,100968.34
2022-08-19T21:34:05.351Z,100965.38
2022-08-19T21:36:33.403Z,100977.66
2022-08-19T21:39:01.473Z,100969.19
2022-08-19T21:41:29.568Z,100972.88
2022-08-19T21:43:58.993Z,100971.13
2022-08-19T21:46:27.033Z,100968.00
2022-08-19T21:48:55.128Z,100962.22
2022-08-19T21:51:23.150Z,100964.59
2022-08-19T21:53:52.973Z,100975.28
2022-08-19T21:56:21.372Z,100959.88
2022-08-19T21:58:49.534Z,100956.06
2022-08-19T22:01:19.069Z,100951.88
2022-08-19T22:03:47.133Z,100947.53
2022-08-19T22:06:16.322Z,100953.81
2022-08-19T22:08:44.874Z,100960.06
2022-08-19T22:11:13.149Z,100956.25
2022-08-19T22:13:41.388Z,100953.28
2022-08-19T22:16:11.001Z,100953.00
2022-08-19T22:18:40.479Z,100952.06
2022-08-19T22:21:11.882Z,100955.69
2022-08-19T22:23:41.608Z,100956.59
2022-08-19T22:26:09.779Z,100960.44
2022-08-19T22:28:38.329Z,100960.94
2022-08-19T22:31:08.235Z,100965.56
2022-08-19T22:33:37.445Z,100968.34
2022-08-19T22:36:08.521Z,100968.84
2022-08-19T22:38:37.379Z,100982.00
2022-08-19T22:41:07.599Z,100974.69
2022-08-19T22:43:37.505Z,100986.28
2022-08-19T22:46:16.949Z,100983.91
2022-08-19T22:48:46.728Z,100988.44
2022-08-19T22:51:34.586Z,100989.13
2022-08-19T22:54:03.210Z,100988.94
2022-08-19T22:56:31.258Z,100983.50
2022-08-19T22:58:59.314Z,100998.38
2022-08-19T23:01:29.983Z,100982.97
2022-08-19T23:03:59.772Z,100974.69
2022-08-19T23:06:33.529Z,100985.31
2022-08-19T23:09:04.467Z,100987.75
2022-08-19T23:11:35.526Z,100977.75
2022-08-19T23:14:04.941Z,100974.69
2022-08-19T23:16:35.380Z,100966.69
2022-08-19T23:19:03.651Z,100967.31
2022-08-19T23:21:33.182Z,100959.81
2022-08-19T23:24:01.427Z,100966.75
2022-08-19T23:26:33.854Z,100962.94
2022-08-19T23:29:21.388Z,100972.06
2022-08-19T23:31:49.586Z,100979.63
2022-08-19T23:34:18.017Z,100985.13
2022-08-19T23:36:48.332Z,100981.56
2022-08-19T23:39:16.385Z,100981.38
2022-08-19T23:41:44.397Z,100975.91
2022-08-19T23:44:14.533Z,100969.56
2022-08-19T23:46:54.369Z,100969.47
2022-08-19T23:49:25.286Z,100966.66
2022-08-19T23:51:56.429Z,100964.69
2022-08-19T23:54:27.541Z,100959.28
2022-08-19T23:57:13.981Z,100955.19
2022-08-19T23:59:45.198Z,100957.53
